createdAt,value
2022-12-17T00:05:36.264Z,35.9
2022-12-17T00:11:02.224Z,35.9
2022-12-17T00:16:30.303Z,35.8
2022-12-17T00:22:12.715Z,35.8
2022-12-17T00:27:40.160Z,35.7
2022-12-17T00:33:19.642Z,35.6
2022-12-17T00:38:58.303Z,35.6
2022-12-17T00:44:24.354Z,35.6
2022-12-17T00:49:47.583Z,35.5
2022-12-17T00:55:12.947Z,35.4
2022-12-17T01:00:53.923Z,35.4
2022-12-17T01:06:05.778Z,35.4
2022-12-17T01:11:45.793Z,35.3
2022-12-17T01:17:13.019Z,35.3
2022-12-17T01:22:37.342Z,35.3
2022-12-17T01:28:19.437Z,35.2
2022-12-17T01:34:04.603Z,35.1
2022-12-17T01:39:42.139Z,35.1
2022-12-17T01:45:20.325Z,35.1
2022-12-17T01:50:59.042Z,35
2022-12-17T01:56:21.118Z,35
2022-12-17T02:01:27.730Z,35
2022-12-17T02:06:51.434Z,36
2022-12-17T02:12:12.838Z,37.1
2022-12-17T02:17:35.807Z,38.1
2022-12-17T02:23:14.003Z,39
2022-12-17T02:28:36.157Z,39.9
2022-12-17T02:34:13.948Z,40.8
2022-12-17T02:39:54.176Z,41.5
2022-12-17T02:45:33.218Z,42.3
2022-12-17T02:50:55.003Z,43.1
2022-12-17T02:56:17.403Z,43.8
2022-12-17T03:01:58.119Z,44.4
2022-12-17T03:08:11.919Z,45.1
2022-12-17T03:13:51.276Z,45.3
2022-12-17T03:19:29.439Z,45.5
2022-12-17T03:25:07.472Z,45.8
2022-12-17T03:30:51.107Z,45.9
2022-12-17T03:36:14.094Z,46.1
2022-12-17T03:41:50.404Z,46.1
2022-12-17T03:47:28.526Z,46.1
2022-12-17T03:52:49.703Z,46.1
2022-12-17T03:58:26.969Z,46.1
2022-12-17T04:04:07.606Z,46.1
2022-12-17T04:09:51.191Z,46.1
2022-12-17T04:15:34.066Z,46
2022-12-17T04:21:12.921Z,46
2022-12-17T04:26:33.640Z,45.9
2022-12-17T04:32:11.133Z,45.9
2022-12-17T04:37:55.825Z,45.9
2022-12-17T04:43:33.449Z,45.9
2022-12-17T04:49:10.999Z,45.8
2022-12-17T04:54:34.002Z,45.8
2022-12-17T05:00:11.063Z,45.8
2022-12-17T05:05:35.203Z,45.8
2022-12-17T05:11:13.790Z,45.7
2022-12-17T05:16:58.575Z,45.6
2022-12-17T05:22:39.483Z,45.6
2022-12-17T05:28:19.786Z,45.6
2022-12-17T05:34:02.722Z,45.4
2022-12-17T05:39:41.138Z,45.4
2022-12-17T05:45:19.637Z,45.3
2022-12-17T05:50:57.839Z,45
2022-12-17T05:56:23.406Z,44.7
2022-12-17T06:02:08.290Z,44.5
2022-12-17T06:07:31.531Z,44.3
2022-12-17T06:13:09.277Z,44.1
2022-12-17T06:18:33.849Z,44
2022-12-17T06:23:56.160Z,43.8
2022-12-17T06:29:33.945Z,43.6
2022-12-17T06:35:12.976Z,43.3
2022-12-17T06:40:53.243Z,43.2
2022-12-17T06:46:35.859Z,43.1
2022-12-17T06:52:15.205Z,42.9
2022-12-17T06:57:57.746Z,42.8
2022-12-17T07:03:36.628Z,42.6
2022-12-17T07:09:14.974Z,42.5
2022-12-17T07:15:01.135Z,42.4
2022-12-17T07:20:22.688Z,42.3
2022-12-17T07:25:46.268Z,42.1
2022-12-17T07:31:28.930Z,42
2022-12-17T07:37:07.347Z,41.9
2022-12-17T07:42:45.909Z,41.8
2022-12-17T07:48:24.552Z,41.7
2022-12-17T07:54:01.415Z,41.6
2022-12-17T07:59:28.781Z,41.4
2022-12-17T08:05:09.020Z,41.2
2022-12-17T08:10:50.913Z,41.1
2022-12-17T08:16:04.243Z,40.9
2022-12-17T08:21:34.575Z,40.8
2022-12-17T08:27:20.069Z,40.7
2022-12-17T08:33:34.665Z,40.6
2022-12-17T08:39:12.384Z,40.4
2022-12-17T08:44:55.487Z,37.7
2022-12-17T08:50:35.822Z,36.6
2022-12-17T08:56:13.795Z,36.2
2022-12-17T09:01:52.246Z,35.9
2022-12-17T09:07:32.622Z,35.8
2022-12-17T09:13:10.196Z,35.7
2022-12-17T09:18:48.049Z,35.4
2022-12-17T09:24:27.604Z,35.1
2022-12-17T09:30:10.451Z,35
2022-12-17T09:35:52.582Z,34.6
2022-12-17T09:41:37.377Z,34.3
2022-12-17T09:47:05.109Z,34.1
2022-12-17T09:52:31.540Z,33.9
2022-12-17T09:57:54.784Z,33.9
2022-12-17T10:03:34.675Z,33.8
2022-12-17T10:09:14.999Z,33.5
2022-12-17T10:14:58.927Z,33.1
2022-12-17T10:20:37.366Z,32.9
2022-12-17T10:26:19.055Z,32.8
2022-12-17T10:31:46.492Z,32.8
2022-12-17T10:37:23.654Z,32.6
2022-12-17T10:43:07.398Z,32.6
2022-12-17T10:48:45.879Z,32.6
2022-12-17T10:54:29.075Z,32.4
2022-12-17T11:00:10.987Z,32.4
2022-12-17T11:05:42.047Z,32.4
2022-12-17T11:11:31.972Z,32.4
2022-12-17T11:17:18.999Z,32.4
2022-12-17T11:22:59.253Z,32.4
2022-12-17T11:28:36.915Z,32.4
2022-12-17T11:34:14.511Z,32.4
2022-12-17T11:40:02.944Z,32.3
2022-12-17T11:45:25.600Z,32.3
2022-12-17T11:50:51.371Z,32.3
2022-12-17T11:56:35.951Z,32.3
2022-12-17T12:02:22.361Z,32.2
2022-12-17T12:08:07.812Z,32.2
2022-12-17T12:13:45.938Z,32.2
2022-12-17T12:19:24.547Z,32.1
2022-12-17T12:25:03.873Z,32.1
2022-12-17T12:30:48.167Z,32.1
2022-12-17T12:36:31.651Z,32.1
2022-12-17T12:42:09.843Z,32.1
2022-12-17T12:47:48.123Z,32
2022-12-17T12:53:29.648Z,32
2022-12-17T12:59:13.126Z,32
2022-12-17T13:04:57.576Z,31.9
2022-12-17T13:10:24.534Z,31.9
2022-12-17T13:16:06.593Z,31.9
2022-12-17T13:21:45.524Z,31.9
2022-12-17T13:27:29.265Z,31.9
2022-12-17T13:32:58.203Z,31.8
2022-12-17T13:38:38.549Z,31.8
2022-12-17T13:44:17.867Z,31.8
2022-12-17T13:50:24.774Z,31.8
2022-12-17T13:56:10.780Z,31.7
2022-12-17T14:01:51.446Z,31.7
2022-12-17T14:08:01.108Z,31.7
2022-12-17T14:13:39.291Z,31.6
2022-12-17T14:19:20.460Z,31.6
2022-12-17T14:24:46.358Z,31.6
2022-12-17T14:30:30.114Z,31.6
2022-12-17T14:36:55.530Z,31.6
2022-12-17T14:42:54.859Z,31.6
2022-12-17T14:48:36.972Z,31.5
2022-12-17T14:54:14.942Z,31.5
2022-12-17T14:59:52.922Z,31.5
2022-12-17T15:05:37.873Z,31.4
2022-12-17T15:11:00.149Z,31.4
2022-12-17T15:16:26.235Z,31.4
2022-12-17T15:22:09.440Z,31.4
2022-12-17T15:27:24.666Z,31.4
2022-12-17T15:32:50.526Z,31.4
2022-12-17T15:38:32.022Z,31.3
2022-12-17T15:44:12.577Z,31.2
2022-12-17T15:49:55.639Z,31.1
2022-12-17T15:55:35.724Z,31.1
2022-12-17T16:00:59.818Z,31
2022-12-17T16:06:30.937Z,30.9
2022-12-17T16:12:14.708Z,30.9
2022-12-17T16:17:26.503Z,30.9
2022-12-17T16:23:08.965Z,30.8
2022-12-17T16:28:32.556Z,30.7
2022-12-17T16:34:17.410Z,30.6
2022-12-17T16:39:59.878Z,30.3
2022-12-17T16:45:38.406Z,29.6
2022-12-17T16:51:21.172Z,29.3
2022-12-17T16:57:08.180Z,29.3
2022-12-17T17:02:32.149Z,29.3
2022-12-17T17:08:14.784Z,29.2
2022-12-17T17:13:53.017Z,29.2
2022-12-17T17:19:52.279Z,29.2
2022-12-17T17:25:44.186Z,29.2
2022-12-17T17:31:53.408Z,29.3
2022-12-17T17:37:47.265Z,29.3
2022-12-17T17:43:26.433Z,29.3
2022-12-17T17:49:10.360Z,29.3
2022-12-17T17:55:24.121Z,29.3
2022-12-17T18:01:08.427Z,29.3
2022-12-17T18:07:09.026Z,29.3
2022-12-17T18:13:01.609Z,29.3
2022-12-17T18:18:57.225Z,29.3
2022-12-17T18:24:34.856Z,29.3
2022-12-17T18:30:13.562Z,29.3
2022-12-17T18:35:36.454Z,29.3
2022-12-17T18:41:19.374Z,29.3
2022-12-17T18:46:58.993Z,29.3
2022-12-17T18:52:49.020Z,29.3
2022-12-17T18:58:56.525Z,29.3
2022-12-17T19:04:36.213Z,28.6
2022-12-17T19:10:19.075Z,28
2022-12-17T19:15:58.553Z,27.6
2022-12-17T19:21:37.363Z,27.2
2022-12-17T19:26:59.745Z,26.9
2022-12-17T19:32:41.416Z,26.6
2022-12-17T19:38:24.099Z,26.5
2022-12-17T19:44:02.070Z,26.4
2022-12-17T19:49:41.015Z,26.3
2022-12-17T19:55:29.002Z,26.2
2022-12-17T20:01:07.003Z,26.1
2022-12-17T20:06:47.181Z,26.1
2022-12-17T20:12:26.277Z,26.1
2022-12-17T20:18:08.706Z,28.4
2022-12-17T20:23:46.423Z,28.4
2022-12-17T20:29:08.968Z,34.5
2022-12-17T20:34:35.705Z,36.6
2022-12-17T20:40:01.018Z,38.2
2022-12-17T20:45:43.124Z,39.4
2022-12-17T20:51:05.816Z,40.2
2022-12-17T20:56:49.003Z,40.8
2022-12-17T21:02:29.902Z,41.7
2022-12-17T21:08:08.351Z,42.4
2022-12-17T21:13:37.607Z,42.9
2022-12-17T21:18:52.704Z,43.1
2022-12-17T21:24:24.637Z,43.3
2022-12-17T21:29:36.143Z,43.4
2022-12-17T21:34:18.188Z,43.4
2022-12-17T21:39:46.317Z,43.4
2022-12-17T21:45:27.347Z,43.3
2022-12-17T21:51:12.877Z,43.3
2022-12-17T21:56:37.143Z,43.3
2022-12-17T22:02:23.962Z,43.2
2022-12-17T22:08:57.044Z,43.1
2022-12-17T22:15:32.280Z,43
2022-12-17T22:21:06.155Z,42.9
2022-12-17T22:26:18.922Z,42.8
2022-12-17T22:31:44.018Z,42.7
2022-12-17T22:47:47.502Z,42.4
2022-12-17T22:54:16.428Z,42.4
2022-12-17T23:01:00.497Z,42.3
2022-12-17T23:06:46.460Z,42.1
2022-12-17T23:12:24.556Z,42
2022-12-17T23:18:02.452Z,41.9
2022-12-17T23:23:28.151Z,41.8
2022-12-17T23:29:05.161Z,41.7
2022-12-17T23:34:28.615Z,41.6
2022-12-17T23:40:10.392Z,41.5
2022-12-17T23:45:49.067Z,41.4
2022-12-17T23:51:31.508Z,41.3
2022-12-17T23:57:10.350Z,41.2
